Time;durP1;ratioP1;P1;durP2;ratioP2;P2;SDS_P1;SDS_P2;PMS_P1;PMS_P2;Temp;Humidity;BMP_temperature;BMP_pressure;BME280_temperature;BME280_humidity;BME280_pressure;Samples;Min_cycle;Max_cycle;Signal;HPM_P1;HPM_P2
2022/07/19 00:00:09;;;;;;;3.92;1.65;;;16.70;99.60;;;;;;5062230;28;20106;-63
2022/07/19 00:02:37;;;;;;;2.35;1.65;;;16.70;99.90;;;;;;5070442;28;20039;-63
2022/07/19 00:05:07;;;;;;;2.40;1.50;;;16.60;99.80;;;;;;5053951;28;20076;-63
2022/07/19 00:07:34;;;;;;;1.63;1.40;;;16.60;99.90;;;;;;5054309;28;20048;-62
2022/07/19 00:10:01;;;;;;;2.05;1.70;;;16.60;99.90;;;;;;5064688;28;20056;-63
2022/07/19 00:12:28;;;;;;;;;;;16.60;99.90;;;;;;5074260;28;20508;-63
2022/07/19 00:14:55;;;;;;;2.38;1.70;;;16.60;99.90;;;;;;5073944;28;20387;-63
2022/07/19 00:17:21;;;;;;;3.65;2.17;;;16.60;99.90;;;;;;5071989;28;20043;-63
2022/07/19 00:19:48;;;;;;;4.15;1.67;;;16.50;99.90;;;;;;5071384;28;20489;-63
2022/07/19 00:22:15;;;;;;;1.55;1.40;;;16.50;99.90;;;;;;5073689;28;20043;-63
2022/07/19 00:24:42;;;;;;;2.85;1.80;;;16.40;99.90;;;;;;5073849;28;20047;-64
2022/07/19 00:27:08;;;;;;;4.20;1.70;;;16.50;99.90;;;;;;5054449;28;20390;-63
2022/07/19 00:29:35;;;;;;;3.97;1.65;;;16.30;99.90;;;;;;5055724;28;20036;-63
2022/07/19 00:32:02;;;;;;;4.40;1.65;;;16.30;99.90;;;;;;5072671;28;20044;-63
2022/07/19 00:34:29;;;;;;;2.53;1.52;;;16.30;99.90;;;;;;5072927;28;20045;-63
2022/07/19 00:36:55;;;;;;;1.85;1.60;;;16.30;99.90;;;;;;5073440;28;20049;-63
2022/07/19 00:39:22;;;;;;;2.70;1.85;;;16.30;99.90;;;;;;5073465;28;20048;-63
2022/07/19 00:41:49;;;;;;;2.28;1.42;;;16.20;99.90;;;;;;5073100;28;20052;-63
2022/07/19 00:44:16;;;;;;;2.28;1.42;;;16.30;99.90;;;;;;5069116;28;20048;-63
2022/07/19 00:46:42;;;;;;;2.53;1.70;;;16.30;99.90;;;;;;5073253;28;20048;-63
2022/07/19 00:49:09;;;;;;;1.48;1.38;;;16.30;99.90;;;;;;5073257;28;20037;-63
2022/07/19 00:51:40;;;;;;;2.13;1.40;;;16.30;99.90;;;;;;5064698;28;20099;-63
2022/07/19 00:54:10;;;;;;;6.55;2.95;;;16.30;99.90;;;;;;5065470;28;20040;-63
2022/07/19 00:56:38;;;;;;;2.22;1.63;;;16.40;99.90;;;;;;5073233;28;20051;-63
2022/07/19 00:59:05;;;;;;;3.35;1.98;;;16.20;99.90;;;;;;5073034;28;20408;-62
2022/07/19 01:01:32;;;;;;;2.20;1.60;;;16.10;99.90;;;;;;5070953;28;20033;-63
2022/07/19 01:03:59;;;;;;;1.98;1.52;;;16.10;99.90;;;;;;5073037;28;20040;-64
2022/07/19 01:06:27;;;;;;;5.18;1.60;;;16.10;99.90;;;;;;5073242;28;20047;-63
2022/07/19 01:08:53;;;;;;;;;;;16.10;99.90;;;;;;5065037;28;20041;-63
2022/07/19 01:11:20;;;;;;;1.50;1.40;;;16.10;99.90;;;;;;5072528;28;20339;-63
2022/07/19 01:13:48;;;;;;;1.83;1.60;;;16.00;99.90;;;;;;5072733;28;20048;-63
2022/07/19 01:16:16;;;;;;;2.85;1.63;;;16.00;99.90;;;;;;5072758;28;20044;-63
2022/07/19 01:18:43;;;;;;;4.40;1.50;;;15.90;99.90;;;;;;5070674;28;20059;-62
2022/07/19 01:21:24;;;;;;;3.83;1.48;;;15.80;99.90;;;;;;5054581;28;20047;-63
2022/07/19 01:23:52;;;;;;;2.15;1.65;;;15.80;99.90;;;;;;5072714;28;20094;-63
2022/07/19 01:26:19;;;;;;;;;;;15.80;99.90;;;;;;5067409;28;20456;-63
2022/07/19 01:28:46;;;;;;;2.80;1.60;;;15.70;99.90;;;;;;5072286;28;19920;-63
2022/07/19 01:31:13;;;;;;;2.70;1.50;;;15.70;99.90;;;;;;5072281;28;20052;-63
2022/07/19 01:33:45;;;;;;;2.78;1.55;;;15.80;99.90;;;;;;5072531;28;20044;-63
2022/07/19 01:36:12;;;;;;;3.20;1.60;;;15.60;99.90;;;;;;5071178;28;20048;-63
2022/07/19 01:38:39;;;;;;;7.90;1.90;;;15.60;99.90;;;;;;5072272;28;20106;-63
2022/07/19 01:41:07;;;;;;;3.00;1.77;;;15.60;99.90;;;;;;5071794;28;20051;-63
2022/07/19 01:43:34;;;;;;;3.30;1.55;;;15.40;99.90;;;;;;5071484;28;20040;-63
2022/07/19 01:46:02;;;;;;;2.10;1.60;;;15.30;99.90;;;;;;5065202;28;20040;-63
2022/07/19 01:48:29;;;;;;;2.83;1.92;;;15.10;99.90;;;;;;5072004;28;20409;-63
2022/07/19 01:50:55;;;;;;;2.63;2.38;;;15.10;99.90;;;;;;5071419;28;20044;-63
2022/07/19 01:53:22;;;;;;;2.67;1.80;;;15.00;99.90;;;;;;5069659;28;20036;-63
2022/07/19 01:55:49;;;;;;;2.22;1.80;;;15.00;99.90;;;;;;5069811;28;20036;-63
2022/07/19 01:58:16;;;;;;;3.22;2.00;;;15.00;99.90;;;;;;5072527;28;20051;-63
2022/07/19 02:00:42;;;;;;;5.03;2.13;;;15.00;99.90;;;;;;5071506;28;20048;-63
2022/07/19 02:03:09;;;;;;;3.65;1.80;;;15.00;99.90;;;;;;5068451;28;20044;-62
2022/07/19 02:05:36;;;;;;;2.63;1.83;;;15.00;99.90;;;;;;5071815;28;20036;-63
2022/07/19 02:08:03;;;;;;;4.10;1.95;;;14.90;99.90;;;;;;5071301;28;20504;-63
2022/07/19 02:10:30;;;;;;;2.88;2.03;;;14.90;99.90;;;;;;5071378;28;20401;-62
2022/07/19 02:12:57;;;;;;;3.38;1.70;;;14.90;99.90;;;;;;5071072;28;20098;-63
2022/07/19 02:15:24;;;;;;;3.20;2.00;;;15.00;99.90;;;;;;5071471;28;20037;-63
2022/07/19 02:17:51;;;;;;;2.70;2.08;;;14.90;99.90;;;;;;5071756;28;20048;-63
2022/07/19 02:20:18;;;;;;;6.60;2.13;;;14.90;99.90;;;;;;5069049;28;20048;-63
2022/07/19 02:22:45;;;;;;;2.83;2.00;;;14.90;99.90;;;;;;5068748;28;20117;-63
2022/07/19 02:25:11;;;;;;;4.30;2.05;;;14.90;99.90;;;;;;5071539;28;20048;-63
2022/07/19 02:27:38;;;;;;;3.05;2.05;;;14.90;99.90;;;;;;5071625;28;20044;-62
2022/07/19 02:30:06;;;;;;;3.00;1.90;;;14.90;99.90;;;;;;5064809;28;20040;-63
2022/07/19 02:32:32;;;;;;;4.13;2.08;;;14.80;99.90;;;;;;5071387;28;20048;-63
2022/07/19 02:34:59;;;;;;;3.65;1.90;;;14.80;99.90;;;;;;5071328;28;20048;-62
2022/07/19 02:37:26;;;;;;;4.45;1.98;;;14.80;99.90;;;;;;5069265;28;20056;-62
2022/07/19 02:39:52;;;;;;;2.22;1.80;;;14.70;99.90;;;;;;5069526;28;20052;-63
2022/07/19 02:42:19;;;;;;;3.45;2.00;;;14.70;99.90;;;;;;5071379;28;20063;-62
2022/07/19 02:44:46;;;;;;;5.38;1.90;;;14.70;99.90;;;;;;5071259;28;20052;-63
2022/07/19 02:47:13;;;;;;;4.32;2.22;;;14.70;99.90;;;;;;5068539;28;20056;-63
2022/07/19 02:49:40;;;;;;;5.68;2.45;;;14.70;99.90;;;;;;5071148;28;20040;-63
2022/07/19 02:52:06;;;;;;;8.05;2.30;;;14.70;99.90;;;;;;5070849;28;20048;-63
2022/07/19 02:54:33;;;;;;;5.75;2.53;;;14.70;99.90;;;;;;5074242;28;20045;-63
2022/07/19 02:57:00;;;;;;;4.57;2.50;;;14.60;99.90;;;;;;5073154;28;20531;-63
2022/07/19 02:59:26;;;;;;;3.08;2.08;;;14.50;99.90;;;;;;5077778;28;20044;-63
2022/07/19 03:01:53;;;;;;;2.47;2.28;;;14.50;99.90;;;;;;5077495;28;20113;-63
2022/07/19 03:04:20;;;;;;;2.72;2.38;;;14.50;99.90;;;;;;5073499;28;20080;-63
2022/07/19 03:06:47;;;;;;;5.03;2.45;;;14.50;99.90;;;;;;5059887;28;20047;-63
2022/07/19 03:09:14;;;;;;;2.38;2.17;;;14.50;99.90;;;;;;5077822;28;20045;-63
2022/07/19 03:11:41;;;;;;;5.97;2.60;;;14.50;99.90;;;;;;5077360;28;20050;-63
2022/07/19 03:14:07;;;;;;;3.03;2.17;;;14.30;99.90;;;;;;5070775;28;20086;-62
2022/07/19 03:16:34;;;;;;;4.88;2.30;;;14.40;99.90;;;;;;5077797;28;20052;-63
2022/07/19 03:19:01;;;;;;;3.70;2.40;;;14.40;99.90;;;;;;5077745;28;20505;-62
2022/07/19 03:21:28;;;;;;;3.38;2.45;;;14.30;99.90;;;;;;5077320;28;20443;-63
2022/07/19 03:23:54;;;;;;;5.18;2.78;;;14.30;99.90;;;;;;5070082;28;20041;-62
2022/07/19 03:26:21;;;;;;;3.05;2.55;;;14.30;99.90;;;;;;5077656;28;20044;-63
2022/07/19 03:28:48;;;;;;;4.28;2.83;;;14.20;99.90;;;;;;5077587;28;20040;-63
2022/07/19 03:31:15;;;;;;;5.13;2.50;;;14.20;99.90;;;;;;5074399;28;20551;-63
2022/07/19 03:33:41;;;;;;;7.03;2.60;;;14.10;99.90;;;;;;5077492;28;20056;-63
2022/07/19 03:36:08;;;;;;;4.25;2.97;;;14.10;99.90;;;;;;5077660;28;20037;-63
2022/07/19 03:38:35;;;;;;;2.65;2.30;;;14.00;99.90;;;;;;5077673;28;20118;-63
2022/07/19 03:41:01;;;;;;;4.03;2.50;;;14.10;99.90;;;;;;5069653;28;20043;-62
2022/07/19 03:43:28;;;;;;;3.13;2.80;;;14.10;99.90;;;;;;5077455;28;20516;-63
2022/07/19 03:45:55;;;;;;;4.88;3.20;;;14.20;99.90;;;;;;5077460;28;20497;-62
2022/07/19 03:48:22;;;;;;;2.80;2.25;;;14.20;99.90;;;;;;5075434;28;20048;-63
2022/07/19 03:50:49;;;;;;;6.93;3.78;;;14.30;99.90;;;;;;5076804;28;20067;-63
2022/07/19 03:53:15;;;;;;;3.75;3.17;;;14.30;99.90;;;;;;5077538;28;20044;-63
2022/07/19 03:55:42;;;;;;;9.02;3.00;;;14.40;99.90;;;;;;5077463;28;20033;-63
2022/07/19 03:58:09;;;;;;;2.92;2.35;;;14.30;99.90;;;;;;5075170;28;20051;-63
2022/07/19 04:00:36;;;;;;;3.88;2.75;;;14.20;99.90;;;;;;5076736;28;20044;-62
2022/07/19 04:03:03;;;;;;;3.90;2.60;;;14.20;99.90;;;;;;5077416;28;20048;-62
2022/07/19 04:05:30;;;;;;;5.57;2.42;;;14.10;99.90;;;;;;5071451;28;20486;-63
2022/07/19 04:07:56;;;;;;;4.68;2.58;;;14.10;99.90;;;;;;5073740;28;20044;-62
2022/07/19 04:10:23;;;;;;;2.58;2.38;;;14.10;99.90;;;;;;5073738;28;20041;-62
2022/07/19 04:12:50;;;;;;;4.82;2.22;;;14.10;99.90;;;;;;5074134;28;20055;-63
2022/07/19 04:15:17;;;;;;;3.63;2.75;;;14.10;99.90;;;;;;5069857;28;20060;-63
2022/07/19 04:17:44;;;;;;;5.40;2.80;;;14.20;99.90;;;;;;5070956;28;20045;-63
2022/07/19 04:20:11;;;;;;;5.88;2.10;;;14.20;99.90;;;;;;5055744;28;20045;-63
2022/07/19 04:22:38;;;;;;;7.85;2.38;;;14.20;99.90;;;;;;5071581;28;20058;-63
2022/07/19 04:25:05;;;;;;;2.88;2.00;;;14.20;99.90;;;;;;5065221;28;20048;-63
2022/07/19 04:27:32;;;;;;;4.70;2.30;;;14.00;99.90;;;;;;5062380;28;20033;-63
2022/07/19 04:29:58;;;;;;;3.97;2.50;;;14.00;99.90;;;;;;5062896;28;20043;-63
2022/07/19 04:32:25;;;;;;;3.35;2.53;;;14.10;99.90;;;;;;5063820;28;20037;-62
2022/07/19 04:34:52;;;;;;;2.80;2.38;;;14.10;99.90;;;;;;5068919;28;20040;-63
2022/07/19 04:37:19;;;;;;;2.92;2.03;;;14.10;99.90;;;;;;5061648;28;20049;-62
2022/07/19 04:39:45;;;;;;;3.10;2.38;;;14.20;99.90;;;;;;5053432;28;20123;-62
2022/07/19 04:42:12;;;;;;;6.63;2.40;;;14.30;99.90;;;;;;5062497;28;20409;-62
2022/07/19 04:44:39;;;;;;;10.82;2.97;;;14.40;99.90;;;;;;5064652;28;20045;-62
2022/07/19 04:47:06;;;;;;;4.30;2.70;;;14.50;99.90;;;;;;5070469;28;20037;-62
2022/07/19 04:49:33;;;;;;;4.28;2.95;;;14.60;99.90;;;;;;5073354;28;20036;-63
2022/07/19 04:52:00;;;;;;;3.70;3.05;;;14.70;99.90;;;;;;5070289;28;20063;-63
2022/07/19 04:54:26;;;;;;;6.05;2.60;;;14.80;99.90;;;;;;5073385;28;20086;-63
2022/07/19 04:56:53;;;;;;;4.40;2.65;;;14.90;99.90;;;;;;5073033;28;20048;-62
2022/07/19 04:59:20;;;;;;;4.15;2.80;;;14.90;99.90;;;;;;5069358;28;20044;-63
2022/07/19 05:01:47;;;;;;;3.33;2.50;;;15.00;99.90;;;;;;5072604;28;20059;-63
2022/07/19 05:04:19;;;;;;;12.23;3.10;;;15.00;99.90;;;;;;5073155;28;20047;-63
2022/07/19 05:06:46;;;;;;;3.65;2.83;;;15.10;99.90;;;;;;5073001;28;20082;-62
2022/07/19 05:09:12;;;;;;;5.68;2.80;;;15.10;99.90;;;;;;5071617;28;20089;-63
2022/07/19 05:11:43;;;;;;;5.80;3.80;;;15.20;99.90;;;;;;5072352;28;20381;-63
2022/07/19 05:14:10;;;;;;;6.10;3.90;;;15.60;99.90;;;;;;5063770;28;20127;-63
2022/07/19 05:16:37;;;;;;;7.68;4.47;;;15.80;99.90;;;;;;5066027;28;20131;-63
2022/07/19 05:19:04;;;;;;;8.40;4.78;;;15.80;99.90;;;;;;5072285;28;20076;-63
2022/07/19 05:21:31;;;;;;;6.07;4.20;;;15.90;99.90;;;;;;5054338;28;20051;-63
2022/07/19 05:23:58;;;;;;;6.38;3.90;;;15.90;99.90;;;;;;5055044;28;20170;-63
2022/07/19 05:26:25;;;;;;;5.43;4.25;;;15.90;99.90;;;;;;5072548;28;20110;-63
2022/07/19 05:28:51;;;;;;;5.28;4.10;;;15.90;99.90;;;;;;5072362;28;20060;-63
2022/07/19 05:31:18;;;;;;;12.32;4.57;;;16.00;99.90;;;;;;5071777;28;20049;-63
2022/07/19 05:33:45;;;;;;;5.60;3.70;;;16.00;99.90;;;;;;5066721;28;20378;-63
2022/07/19 05:36:12;;;;;;;6.32;4.30;;;16.10;99.90;;;;;;5072158;28;20052;-63
2022/07/19 05:38:39;;;;;;;8.25;4.55;;;16.10;99.90;;;;;;5072370;28;20059;-63
2022/07/19 05:41:07;;;;;;;4.95;3.90;;;16.20;99.90;;;;;;5069438;28;20044;-62
2022/07/19 05:43:36;;;;;;;5.68;4.20;;;16.30;99.90;;;;;;5072241;28;20044;-62
2022/07/19 05:46:03;;;;;;;7.10;3.60;;;16.30;99.90;;;;;;5072109;28;20468;-62
2022/07/19 05:48:31;;;;;;;5.45;3.90;;;16.40;99.90;;;;;;5072007;28;20048;-62
2022/07/19 05:50:58;;;;;;;7.35;4.07;;;16.50;99.90;;;;;;5079095;22;20044;-60
2022/07/19 05:53:26;;;;;;;8.35;3.92;;;16.50;99.90;;;;;;5034677;28;20060;-60
2022/07/19 05:55:54;;;;;;;6.88;4.13;;;16.60;99.90;;;;;;5031674;28;20042;-60
2022/07/19 05:58:21;;;;;;;11.10;4.75;;;16.60;99.90;;;;;;5032000;28;20498;-60
2022/07/19 06:03:33;;;;;;;8.25;3.65;;;16.70;99.90;;;;;;5051817;28;20079;-60
2022/07/19 06:06:00;;;;;;;8.60;3.88;;;16.80;99.90;;;;;;5051932;28;20056;-60
2022/07/19 06:08:27;;;;;;;6.05;4.43;;;16.80;99.90;;;;;;5044064;28;20387;-60
2022/07/19 06:10:54;;;;;;;7.00;3.60;;;16.90;99.90;;;;;;5041779;28;20377;-60
2022/07/19 06:13:21;;;;;;;5.55;3.95;;;16.90;99.90;;;;;;5051880;28;20378;-60
2022/07/19 06:15:49;;;;;;;7.80;3.63;;;17.00;99.90;;;;;;5051435;28;20044;-60
2022/07/19 06:18:17;;;;;;;10.48;3.97;;;17.10;99.90;;;;;;5037125;28;20049;-60
2022/07/19 06:20:46;;;;;;;9.90;4.70;;;17.20;99.90;;;;;;5042711;28;20047;-60
2022/07/19 06:23:13;;;;;;;9.73;3.90;;;17.30;99.90;;;;;;5051704;28;20037;-60
2022/07/19 06:25:45;;;;;;;9.60;4.00;;;17.30;99.90;;;;;;5045262;28;20046;-60
2022/07/19 06:28:12;;;;;;;10.25;4.80;;;17.40;99.90;;;;;;5043004;28;20047;-60
2022/07/19 06:30:39;;;;;;;8.75;3.80;;;17.50;99.90;;;;;;5050539;28;20053;-60
2022/07/19 06:33:06;;;;;;;11.90;3.78;;;17.60;99.90;;;;;;5051450;28;20517;-61
2022/07/19 06:35:33;;;;;;;15.48;3.75;;;17.80;99.90;;;;;;5042867;28;20037;-60
2022/07/19 06:38:00;;;;;;;9.00;3.72;;;17.80;99.90;;;;;;5042327;28;20041;-60
2022/07/19 06:40:27;;;;;;;9.45;3.95;;;18.00;99.90;;;;;;5051628;28;20048;-60
2022/07/19 06:42:54;;;;;;;14.05;3.92;;;18.20;99.90;;;;;;5051760;28;20401;-60
2022/07/19 06:45:20;;;;;;;11.00;4.20;;;18.40;99.90;;;;;;5046320;28;20044;-60
2022/07/19 06:47:47;;;;;;;8.70;4.03;;;18.50;99.90;;;;;;5042946;28;20049;-60
2022/07/19 06:50:14;;;;;;;16.52;4.78;;;18.60;99.90;;;;;;5050694;28;20063;-60
2022/07/19 06:53:01;;;;;;;10.15;3.63;;;18.80;99.90;;;;;;5048668;28;20102;-60
2022/07/19 06:55:28;;;;;;;7.78;3.60;;;19.00;99.90;;;;;;5039403;28;20041;-60
2022/07/19 06:57:55;;;;;;;8.60;4.13;;;19.20;99.90;;;;;;5050050;28;20041;-60
2022/07/19 07:00:21;;;;;;;8.20;3.83;;;19.30;99.90;;;;;;5050817;28;20041;-60
2022/07/19 07:02:48;;;;;;;8.30;3.92;;;19.50;99.90;;;;;;5047499;28;20416;-60
2022/07/19 07:05:15;;;;;;;7.88;3.72;;;19.50;99.90;;;;;;5042733;28;20116;-60
2022/07/19 07:07:42;;;;;;;6.85;3.20;;;19.70;99.90;;;;;;5051136;28;20532;-60
2022/07/19 07:10:09;;;;;;;5.50;3.53;;;19.80;99.90;;;;;;5050577;28;20053;-60
2022/07/19 07:12:37;;;;;;;8.77;3.88;;;19.80;99.90;;;;;;5047070;28;20045;-60
2022/07/19 07:15:05;;;;;;;11.65;3.00;;;20.00;99.90;;;;;;5042271;28;20033;-60
2022/07/19 07:17:32;;;;;;;12.48;3.67;;;20.10;99.90;;;;;;5051115;28;20041;-60
2022/07/19 07:19:59;;;;;;;10.50;3.78;;;20.20;99.90;;;;;;5050575;28;20048;-60
2022/07/19 07:22:26;;;;;;;15.77;4.22;;;20.40;99.90;;;;;;5048749;28;20120;-60
2022/07/19 07:24:53;;;;;;;;;;;20.50;99.90;;;;;;5041744;28;20044;-60
2022/07/19 07:27:20;;;;;;;9.43;3.50;;;20.60;99.90;;;;;;5050985;28;20324;-61
2022/07/19 07:29:50;;;;;;;11.93;3.45;;;20.70;99.90;;;;;;5048865;28;20764;-60
2022/07/19 07:32:17;;;;;;;;;;;20.90;99.90;;;;;;5039354;28;20050;-59
2022/07/19 07:34:44;;;;;;;22.85;3.97;;;21.10;99.90;;;;;;5048474;28;19950;-60
2022/07/19 07:37:11;;;;;;;8.07;3.60;;;21.20;99.90;;;;;;5050447;28;20048;-60
2022/07/19 07:39:38;;;;;;;7.78;3.83;;;21.30;99.90;;;;;;5037116;28;20045;-60
2022/07/19 07:42:05;;;;;;;;;;;21.40;99.90;;;;;;5041180;28;20529;-60
2022/07/19 07:44:39;;;;;;;9.90;4.47;;;21.60;99.90;;;;;;5034795;28;19925;-60
2022/07/19 07:47:08;;;;;;;7.20;4.20;;;21.70;99.90;;;;;;5037758;28;20485;-60
2022/07/19 07:49:38;;;;;;;6.35;3.80;;;21.90;99.90;;;;;;5045658;28;20033;-60
2022/07/19 07:52:06;;;;;;;5.63;3.83;;;22.00;99.90;;;;;;5054031;28;20041;-60
2022/07/19 07:54:34;;;;;;;6.68;3.70;;;22.10;99.90;;;;;;5054437;28;20055;-60
2022/07/19 07:57:02;;;;;;;5.00;3.92;;;22.20;99.90;;;;;;5048111;28;20116;-60
2022/07/19 07:59:29;;;;;;;;;;;22.30;99.90;;;;;;5050163;28;20510;-60
2022/07/19 08:01:55;;;;;;;9.88;4.00;;;22.40;99.90;;;;;;5053642;28;19921;-60
2022/07/19 08:04:26;;;;;;;13.68;3.15;;;22.50;99.90;;;;;;5048819;28;20041;-60
2022/07/19 08:06:52;;;;;;;6.05;2.90;;;22.70;99.90;;;;;;5046025;28;20494;-60
2022/07/19 08:09:20;;;;;;;7.43;3.20;;;22.70;99.90;;;;;;5054111;28;20055;-60
2022/07/19 08:11:46;;;;;;;;;;;22.80;99.90;;;;;;5040095;28;20092;-60
2022/07/19 08:14:13;;;;;;;4.15;3.17;;;22.90;99.90;;;;;;5045627;28;19927;-60
2022/07/19 08:16:40;;;;;;;;;;;22.90;99.90;;;;;;5054327;28;20450;-60
2022/07/19 08:19:07;;;;;;;14.50;5.10;;;23.10;99.90;;;;;;5053676;28;19944;-60
2022/07/19 08:21:34;;;;;;;4.65;3.50;;;23.20;99.90;;;;;;5038358;28;20497;-60
2022/07/19 08:24:01;;;;;;;9.77;3.55;;;23.40;99.90;;;;;;5045394;28;20434;-60
2022/07/19 08:26:30;;;;;;;7.55;3.47;;;23.50;99.90;;;;;;5053957;28;20508;-60
2022/07/19 08:28:57;;;;;;;10.23;3.75;;;23.60;99.90;;;;;;5045543;28;20081;-60
2022/07/19 08:31:24;;;;;;;16.35;3.70;;;23.80;99.90;;;;;;5047601;28;20048;-60
2022/07/19 08:33:50;;;;;;;6.55;3.72;;;23.90;99.90;;;;;;5053651;28;20082;-60
2022/07/19 08:36:17;;;;;;;4.93;3.78;;;24.00;99.90;;;;;;5053672;28;20055;-60
2022/07/19 08:38:46;;;;;;;13.40;3.58;;;24.10;99.90;;;;;;5042820;28;20064;-60
2022/07/19 08:41:14;;;;;;;18.45;3.45;;;24.20;99.90;;;;;;5052843;28;20094;-61
2022/07/19 08:43:41;;;;;;;3.53;2.83;;;24.30;99.90;;;;;;5053343;28;20033;-60
2022/07/19 08:46:08;;;;;;;4.20;3.75;;;24.40;99.90;;;;;;5043254;28;20044;-60
2022/07/19 08:48:36;;;;;;;3.50;3.20;;;24.60;99.90;;;;;;5045122;28;20045;-60
2022/07/19 08:51:13;;;;;;;7.50;3.40;;;24.90;99.00;;;;;;5052882;28;20040;-60
2022/07/19 08:53:40;;;;;;;;;;;25.00;98.90;;;;;;5053055;28;20045;-60
2022/07/19 08:57:56;;;;;;;10.38;3.80;;;25.00;99.10;;;;;;5046056;28;20396;-60
2022/07/19 08:58:54;;;;;;;7.18;3.42;;;25.20;98.10;;;;;;5051740;28;20516;-60
2022/07/19 09:01:22;;;;;;;8.85;3.42;;;25.10;97.70;;;;;;5052710;28;20057;-60
2022/07/19 09:04:09;;;;;;;9.80;3.28;;;25.20;98.20;;;;;;5037140;28;20521;-60
2022/07/19 09:06:52;;;;;;;9.55;4.00;;;25.40;98.30;;;;;;5044819;28;20041;-60
2022/07/19 09:09:23;;;;;;;11.05;3.25;;;25.40;97.80;;;;;;5052919;28;20049;-60
2022/07/19 09:11:51;;;;;;;11.93;3.45;;;25.70;98.30;;;;;;5038533;28;20495;-60
2022/07/19 09:14:18;;;;;;;9.07;3.47;;;25.90;97.70;;;;;;5044461;28;20047;-60
2022/07/19 09:16:53;;;;;;;6.82;3.50;;;26.00;98.70;;;;;;5052678;28;20033;-60
2022/07/19 09:19:21;;;;;;;5.03;3.53;;;26.00;96.70;;;;;;5046516;28;20052;-61
2022/07/19 09:21:52;;;;;;;5.50;3.08;;;26.00;96.10;;;;;;5039496;28;20414;-61
2022/07/19 09:24:21;;;;;;;5.07;3.10;;;26.10;97.10;;;;;;5052707;28;20059;-60
2022/07/19 09:27:15;;;;;;;3.60;3.00;;;26.20;98.30;;;;;;5052451;28;20040;-60
2022/07/19 09:29:45;;;;;;;5.43;3.00;;;26.20;98.20;;;;;;5032828;28;20061;-61
2022/07/19 09:32:17;;;;;;;4.68;3.22;;;26.30;99.50;;;;;;5043842;28;20041;-61
2022/07/19 09:34:53;;;;;;;5.28;3.20;;;26.30;99.10;;;;;;5052640;28;20033;-60
2022/07/19 09:37:22;;;;;;;6.90;3.08;;;26.40;97.90;;;;;;5047782;28;20409;-60
2022/07/19 09:39:57;;;;;;;6.10;3.15;;;26.40;98.00;;;;;;5044001;28;20418;-60
2022/07/19 09:42:37;;;;;;;8.40;3.15;;;26.50;96.40;;;;;;5052204;28;20045;-61
2022/07/19 09:45:07;;;;;;;5.40;3.17;;;26.60;98.50;;;;;;5050006;28;20044;-60
2022/07/19 09:47:36;;;;;;;4.63;2.95;;;26.60;97.40;;;;;;5044019;28;20041;-60
2022/07/19 09:50:18;;;;;;;8.75;3.13;;;26.60;97.80;;;;;;5051793;28;20414;-60
2022/07/19 09:52:47;;;;;;;6.28;3.30;;;26.60;94.90;;;;;;5052222;28;20045;-60
2022/07/19 09:55:17;;;;;;;3.53;3.10;;;26.70;95.20;;;;;;5034162;28;20107;-61
2022/07/19 09:57:50;;;;;;;9.05;3.47;;;26.70;96.70;;;;;;5048776;28;20041;-61
2022/07/19 10:00:19;;;;;;;4.10;3.08;;;26.80;96.30;;;;;;5051573;28;20037;-61
2022/07/19 10:02:59;;;;;;;7.43;2.97;;;26.80;96.70;;;;;;5038519;28;20438;-61
2022/07/19 10:05:28;;;;;;;5.28;3.05;;;26.70;95.70;;;;;;5042918;28;20045;-60
2022/07/19 10:07:55;;;;;;;7.25;3.20;;;26.80;95.20;;;;;;5030447;28;20267;-61
2022/07/19 10:10:24;;;;;;;9.25;3.38;;;26.90;95.00;;;;;;5029138;28;20124;-61
2022/07/19 10:12:52;;;;;;;6.20;3.10;;;27.00;94.70;;;;;;5031051;28;20055;-61
2022/07/19 10:15:19;;;;;;;8.00;3.40;;;27.00;96.30;;;;;;5028747;28;20053;-60
2022/07/19 10:17:52;;;;;;;9.10;3.95;;;27.20;95.80;;;;;;5028188;28;20048;-60
2022/07/19 10:20:23;;;;;;;5.45;2.97;;;27.30;94.90;;;;;;5031155;28;20049;-61
2022/07/19 10:22:50;;;;;;;7.13;3.28;;;27.50;94.80;;;;;;5030912;28;20049;-61
2022/07/19 10:25:18;;;;;;;5.25;3.40;;;27.50;94.30;;;;;;5030932;28;20045;-61
2022/07/19 10:27:57;;;;;;;3.83;3.28;;;27.60;94.60;;;;;;5030856;28;20037;-61
2022/07/19 10:30:40;;;;;;;10.05;3.47;;;27.60;95.50;;;;;;5026244;28;20084;-61
2022/07/19 10:33:25;;;;;;;;;;;27.60;95.20;;;;;;5023514;28;20056;-60
2022/07/19 10:35:52;;;;;;;4.55;3.00;;;27.50;94.50;;;;;;5039729;28;19921;-61
2022/07/19 10:38:19;;;;;;;4.20;3.17;;;27.50;94.90;;;;;;5031606;28;20045;-61
2022/07/19 10:40:48;;;;;;;3.95;3.35;;;27.50;95.00;;;;;;5030425;28;20037;-61
2022/07/19 10:43:16;;;;;;;4.80;3.10;;;27.70;94.10;;;;;;5032832;28;20033;-61
2022/07/19 10:46:02;;;;;;;5.00;2.90;;;27.80;94.90;;;;;;5048211;28;20048;-61
2022/07/19 10:48:49;;;;;;;6.90;3.50;;;27.80;95.20;;;;;;5051275;28;20094;-61
2022/07/19 10:51:33;;;;;;;4.75;2.75;;;27.80;95.50;;;;;;5032483;28;20045;-61
2022/07/19 10:54:03;;;;;;;3.90;2.85;;;27.80;96.80;;;;;;5050797;28;20044;-61
2022/07/19 10:56:51;;;;;;;3.70;2.95;;;27.60;94.90;;;;;;5051337;28;20048;-61
2022/07/19 10:59:34;;;;;;;23.70;4.93;;;27.80;94.20;;;;;;5027685;28;20092;-61
2022/07/19 11:02:02;;;;;;;3.05;2.75;;;27.80;95.10;;;;;;5041932;28;20041;-61
2022/07/19 11:04:49;;;;;;;4.57;3.08;;;28.00;95.90;;;;;;5051321;28;20040;-61
2022/07/19 11:07:21;;;;;;;6.75;3.58;;;28.10;96.40;;;;;;5047075;28;20045;-61
2022/07/19 11:09:57;;;;;;;7.13;3.00;;;28.40;96.90;;;;;;5042345;28;20052;-61
2022/07/19 11:12:32;;;;;;;6.72;2.78;;;28.50;97.60;;;;;;5036721;28;20046;-61
2022/07/19 11:15:02;;;;;;;5.90;3.40;;;28.50;98.50;;;;;;5032769;28;20033;-61
2022/07/19 11:18:10;;;;;;;4.40;2.80;;;28.50;98.30;;;;;;5046906;28;20701;-61
2022/07/19 11:20:37;;;;;;;5.70;2.60;;;28.40;98.70;;;;;;5054797;28;20059;-61
2022/07/19 11:23:04;;;;;;;6.63;3.10;;;28.40;97.20;;;;;;5055168;28;20052;-61
2022/07/19 11:25:35;;;;;;;7.45;3.00;;;28.50;97.50;;;;;;5040998;28;20124;-61
2022/07/19 11:28:03;;;;;;;3.58;2.92;;;28.60;96.90;;;;;;5046571;28;20091;-61
2022/07/19 11:30:32;;;;;;;7.88;3.20;;;28.60;97.20;;;;;;5054460;28;20044;-61
2022/07/19 11:33:01;;;;;;;4.30;2.85;;;28.70;97.70;;;;;;5050932;28;20116;-61
2022/07/19 11:35:29;;;;;;;3.78;3.38;;;28.90;96.90;;;;;;5025494;28;20136;-61
2022/07/19 11:37:58;;;;;;;3.42;2.67;;;28.90;96.10;;;;;;5052489;28;20049;-61
2022/07/19 11:40:33;;;;;;;5.28;2.90;;;28.90;96.60;;;;;;5054278;28;20122;-61
2022/07/19 11:43:07;;;;;;;3.78;2.95;;;28.90;96.90;;;;;;5038994;28;20045;-61
2022/07/19 11:45:48;;;;;;;3.60;2.80;;;29.00;97.70;;;;;;5051839;28;20037;-61
2022/07/19 11:48:26;;;;;;;4.93;2.90;;;28.80;97.50;;;;;;5054621;28;20083;-61
2022/07/19 11:51:12;;;;;;;6.35;3.10;;;28.90;97.10;;;;;;5047632;28;20053;-57
2022/07/19 11:53:48;;;;;;;7.18;3.17;;;29.00;97.40;;;;;;5011789;28;20442;-63
2022/07/19 11:56:29;;;;;;;7.35;5.63;;;29.20;97.40;;;;;;5034016;28;20045;-63
2022/07/19 11:58:58;;;;;;;4.00;2.80;;;29.30;95.70;;;;;;5033640;28;20038;-63
2022/07/19 12:01:30;;;;;;;5.07;2.67;;;29.50;96.30;;;;;;5024565;28;20052;-63
2022/07/19 12:04:05;;;;;;;6.18;2.60;;;29.50;95.80;;;;;;5036206;28;20508;-63
2022/07/19 12:06:38;;;;;;;6.60;2.90;;;29.60;96.90;;;;;;5054297;28;20076;-63
2022/07/19 12:09:07;;;;;;;11.55;3.35;;;29.60;96.10;;;;;;5037269;28;20045;-63
2022/07/19 12:11:52;;;;;;;7.28;2.95;;;29.70;96.80;;;;;;5049345;28;20045;-63
2022/07/19 12:14:34;;;;;;;3.28;2.90;;;29.80;95.10;;;;;;5054051;28;20449;-63
2022/07/19 12:17:21;;;;;;;8.27;3.00;;;29.80;95.30;;;;;;5018834;28;20062;-63
2022/07/19 12:19:52;;;;;;;6.18;3.13;;;29.80;95.00;;;;;;5041700;28;20041;-63
2022/07/19 12:22:33;;;;;;;5.93;2.95;;;29.70;94.30;;;;;;5033973;28;20045;-64
2022/07/19 12:25:01;;;;;;;4.03;3.05;;;29.70;95.00;;;;;;5030241;28;20037;-63
2022/07/19 12:27:29;;;;;;;5.18;2.80;;;29.80;94.50;;;;;;5044687;28;20044;-63
2022/07/19 12:30:04;;;;;;;4.30;3.22;;;29.70;95.70;;;;;;5053315;28;20037;-63
2022/07/19 12:32:36;;;;;;;4.43;3.00;;;29.80;94.50;;;;;;5041672;28;20049;-63
2022/07/19 12:35:06;;;;;;;4.03;2.83;;;29.80;95.40;;;;;;5045006;28;20044;-63
2022/07/19 12:37:36;;;;;;;3.72;3.40;;;29.80;94.30;;;;;;5053480;28;20045;-63
2022/07/19 12:40:13;;;;;;;5.82;2.72;;;30.00;95.00;;;;;;5053310;28;20040;-63
2022/07/19 12:42:59;;;;;;;6.05;3.25;;;30.00;94.80;;;;;;5042982;28;20048;-63
2022/07/19 12:45:28;;;;;;;4.03;2.60;;;30.10;95.20;;;;;;5053571;28;20045;-63
2022/07/19 12:47:55;;;;;;;6.50;3.33;;;30.10;93.20;;;;;;5053600;28;20033;-63
2022/07/19 12:50:34;;;;;;;4.00;3.13;;;30.20;93.60;;;;;;5036922;28;20045;-63
2022/07/19 12:53:05;;;;;;;4.95;2.95;;;30.30;94.40;;;;;;5045055;28;20055;-63
2022/07/19 12:55:33;;;;;;;3.45;3.10;;;30.30;94.80;;;;;;5053410;28;20053;-63
2022/07/19 12:58:03;;;;;;;4.22;2.90;;;30.30;93.20;;;;;;5053351;28;20132;-63
2022/07/19 13:00:32;;;;;;;5.50;3.03;;;30.30;93.10;;;;;;5036085;28;20047;-63